createdAt,value
2018-06-07T00:00:37.248Z,22.40
2018-06-07T00:05:39.818Z,22.40
2018-06-07T00:10:42.375Z,22.40
2018-06-07T00:15:44.909Z,22.30
2018-06-07T00:20:47.436Z,22.20
2018-06-07T00:25:50.075Z,22.10
2018-06-07T00:30:52.604Z,22.10
2018-06-07T00:35:55.141Z,22.00
2018-06-07T00:40:57.664Z,22.00
2018-06-07T00:46:00.186Z,21.90
2018-06-07T00:51:03.517Z,21.80
2018-06-07T00:56:06.066Z,21.80
2018-06-07T01:01:08.590Z,21.70
2018-06-07T01:06:11.189Z,21.70
2018-06-07T01:11:13.715Z,21.60
2018-06-07T01:16:16.280Z,21.50
2018-06-07T01:21:18.812Z,21.50
2018-06-07T01:26:21.331Z,21.40
2018-06-07T01:31:29.412Z,21.40
2018-06-07T01:36:31.940Z,21.30
2018-06-07T01:41:34.489Z,21.30
2018-06-07T01:46:37.015Z,21.20
2018-06-07T01:51:40.296Z,21.10
2018-06-07T01:56:42.815Z,21.00
2018-06-07T02:01:45.364Z,21.00
2018-06-07T02:06:47.888Z,20.90
2018-06-07T02:11:50.419Z,20.90
2018-06-07T02:16:52.980Z,20.80
2018-06-07T02:21:55.514Z,20.80
2018-06-07T02:26:58.039Z,20.70
2018-06-07T02:32:00.576Z,20.60
2018-06-07T02:37:03.108Z,20.60
2018-06-07T02:42:05.636Z,20.50
2018-06-07T02:47:08.164Z,20.50
2018-06-07T02:52:10.704Z,20.40
2018-06-07T02:57:13.246Z,20.30
2018-06-07T03:02:15.795Z,20.30
2018-06-07T03:07:18.417Z,20.20
2018-06-07T03:12:20.977Z,20.20
2018-06-07T03:17:23.524Z,20.20
2018-06-07T03:22:26.046Z,20.10
2018-06-07T03:27:28.581Z,20.10
2018-06-07T03:32:31.140Z,20.00
2018-06-07T03:37:33.688Z,20.00
2018-06-07T03:42:36.238Z,20.00
2018-06-07T03:47:38.814Z,19.90
2018-06-07T03:52:41.432Z,19.90
2018-06-07T03:57:43.933Z,19.90
2018-06-07T04:02:47.286Z,19.80
2018-06-07T04:07:49.811Z,19.90
2018-06-07T04:12:52.374Z,19.90
2018-06-07T04:17:54.903Z,19.80
2018-06-07T04:22:57.471Z,19.90
2018-06-07T04:28:03.923Z,19.90
2018-06-07T04:33:06.444Z,19.90
2018-06-07T04:38:09.004Z,20.00
2018-06-07T04:43:13.737Z,20.00
2018-06-07T04:48:16.411Z,20.00
2018-06-07T04:53:18.964Z,20.00
2018-06-07T04:58:21.512Z,20.10
2018-06-07T05:03:24.112Z,20.10
2018-06-07T05:08:26.652Z,20.10
2018-06-07T05:13:29.620Z,20.10
2018-06-07T05:18:32.171Z,20.20
2018-06-07T05:23:34.709Z,20.20
2018-06-07T05:28:37.265Z,20.20
2018-06-07T05:33:39.796Z,20.30
2018-06-07T05:38:42.901Z,20.30
2018-06-07T05:43:45.409Z,20.40
2018-06-07T05:48:47.986Z,20.40
2018-06-07T05:53:50.556Z,20.50
2018-06-07T05:58:53.141Z,20.60
2018-06-07T06:03:55.721Z,20.70
2018-06-07T06:08:58.322Z,20.70
2018-06-07T06:14:00.856Z,20.80
2018-06-07T06:19:03.414Z,20.90
2018-06-07T06:24:05.959Z,21.00
2018-06-07T06:29:08.514Z,21.10
2018-06-07T06:34:11.070Z,21.20
2018-06-07T06:39:13.634Z,21.30
2018-06-07T06:44:16.173Z,21.40
2018-06-07T06:49:18.766Z,21.40
2018-06-07T06:54:21.288Z,21.50
2018-06-07T06:59:24.627Z,21.70
2018-06-07T07:04:27.184Z,21.60
2018-06-07T07:09:29.765Z,21.70
2018-06-07T07:14:32.308Z,21.80
2018-06-07T07:19:35.618Z,22.00
2018-06-07T07:24:38.164Z,22.00
2018-06-07T07:29:40.700Z,22.20
2018-06-07T07:34:43.259Z,22.30
2018-06-07T07:39:45.829Z,22.50
2018-06-07T07:44:48.389Z,22.80
2018-06-07T07:49:50.949Z,23.10
2018-06-07T07:54:53.501Z,23.50
2018-06-07T07:59:56.056Z,23.90
2018-06-07T08:04:58.612Z,24.20
2018-06-07T08:10:01.202Z,24.50
2018-06-07T08:15:03.749Z,24.90
2018-06-07T08:20:06.289Z,25.30
2018-06-07T08:25:08.834Z,25.60
2018-06-07T08:30:11.394Z,25.90
2018-06-07T08:35:13.928Z,26.30
2018-06-07T08:40:16.478Z,26.60
2018-06-07T08:45:19.041Z,26.90
2018-06-07T08:50:21.574Z,27.20
2018-06-07T08:55:24.124Z,27.50
2018-06-07T09:00:27.610Z,28.00
2018-06-07T09:05:30.753Z,28.20
2018-06-07T09:10:33.456Z,28.20
2018-06-07T09:15:35.993Z,28.40
2018-06-07T09:20:38.537Z,28.60
2018-06-07T09:25:41.117Z,28.80
2018-06-07T09:30:43.744Z,28.90
2018-06-07T09:35:46.315Z,29.10
2018-06-07T09:40:48.905Z,29.20
2018-06-07T09:45:51.452Z,29.40
2018-06-07T09:50:54.009Z,29.60
2018-06-07T09:55:56.591Z,29.70
2018-06-07T10:00:59.120Z,29.90
2018-06-07T10:06:01.695Z,30.10
2018-06-07T10:11:04.243Z,30.20
2018-06-07T10:16:06.796Z,30.30
2018-06-07T10:21:09.332Z,30.50
2018-06-07T10:26:11.865Z,30.70
2018-06-07T10:31:14.421Z,30.80
2018-06-07T10:36:17.054Z,30.90
2018-06-07T10:41:19.602Z,31.10
2018-06-07T10:46:22.152Z,31.20
2018-06-07T10:51:24.689Z,31.30
2018-06-07T10:56:27.255Z,31.40
2018-06-07T11:01:29.799Z,31.60
2018-06-07T11:06:32.444Z,31.70
2018-06-07T11:11:34.979Z,31.90
2018-06-07T11:21:54.087Z,32.20
2018-06-07T11:26:57.388Z,32.30
2018-06-07T11:31:59.924Z,32.30
2018-06-07T11:37:02.701Z,32.40
2018-06-07T11:42:05.255Z,32.50
2018-06-07T11:47:07.804Z,32.60
2018-06-07T11:52:10.348Z,32.60
2018-06-07T11:57:12.881Z,32.60
2018-06-07T12:02:15.418Z,32.70
2018-06-07T12:07:17.991Z,32.70
2018-06-07T12:12:20.583Z,32.80
2018-06-07T12:17:23.128Z,32.90
2018-06-07T12:22:25.690Z,32.90
2018-06-07T12:27:29.006Z,33.00
2018-06-07T12:32:32.389Z,33.00
2018-06-07T12:37:34.954Z,33.00
2018-06-07T12:42:37.832Z,33.10
2018-06-07T12:47:40.381Z,33.10
2018-06-07T12:52:42.954Z,33.20
2018-06-07T12:57:45.532Z,33.30
2018-06-07T13:02:48.091Z,33.40
2018-06-07T13:07:50.663Z,33.50
2018-06-07T13:12:53.184Z,33.50
2018-06-07T13:17:55.736Z,33.50
2018-06-07T13:22:59.040Z,33.50
2018-06-07T13:28:01.605Z,33.50
2018-06-07T13:33:04.163Z,33.50
2018-06-07T13:38:07.475Z,33.60
2018-06-07T13:43:10.724Z,33.60
2018-06-07T13:48:13.292Z,33.60
2018-06-07T13:53:15.836Z,33.60
2018-06-07T13:58:18.370Z,33.60
2018-06-07T14:03:20.906Z,33.50
2018-06-07T14:08:23.491Z,33.50
2018-06-07T14:13:26.116Z,33.40
2018-06-07T14:18:29.245Z,33.30
2018-06-07T14:23:31.771Z,33.10
2018-06-07T14:28:34.317Z,33.00
2018-06-07T14:33:36.873Z,32.80
2018-06-07T14:38:39.410Z,32.70
2018-06-07T14:43:41.956Z,32.60
2018-06-07T14:48:44.926Z,32.40
2018-06-07T14:53:47.475Z,32.40
2018-06-07T14:58:50.036Z,32.30
2018-06-07T15:03:52.568Z,32.20
2018-06-07T15:08:55.126Z,32.20
2018-06-07T15:13:57.671Z,32.10
2018-06-07T15:19:00.246Z,32.10
2018-06-07T15:24:02.794Z,32.00
2018-06-07T15:29:05.340Z,32.00
2018-06-07T15:34:07.883Z,32.00
2018-06-07T15:39:10.758Z,31.90
2018-06-07T15:44:13.313Z,31.80
2018-06-07T15:49:15.867Z,31.80
2018-06-07T15:54:18.447Z,31.70
2018-06-07T15:59:21.008Z,31.50
2018-06-07T16:04:23.564Z,31.40
2018-06-07T16:09:26.252Z,31.20
2018-06-07T16:14:28.817Z,31.00
2018-06-07T16:19:31.360Z,30.80
2018-06-07T16:24:33.924Z,30.70
2018-06-07T16:29:36.463Z,30.50
2018-06-07T16:34:39.008Z,30.30
2018-06-07T16:39:41.556Z,30.20
2018-06-07T16:44:44.113Z,30.10
2018-06-07T16:49:46.653Z,30.00
2018-06-07T16:54:49.205Z,29.80
2018-06-07T16:59:51.766Z,29.70
2018-06-07T17:04:54.362Z,29.60
2018-06-07T17:09:56.967Z,29.50
2018-06-07T17:14:59.477Z,29.40
2018-06-07T17:20:03.111Z,29.30
2018-06-07T17:25:05.690Z,29.20
2018-06-07T17:30:08.260Z,29.10
2018-06-07T17:35:10.810Z,29.00
2018-06-07T17:40:13.410Z,28.80
2018-06-07T17:45:16.591Z,28.70
2018-06-07T17:50:19.147Z,28.70
2018-06-07T17:55:22.472Z,28.40
2018-06-07T18:00:25.042Z,28.30
2018-06-07T18:05:27.601Z,28.30
2018-06-07T18:10:30.191Z,28.10
2018-06-07T18:15:33.065Z,28.00
2018-06-07T18:20:35.647Z,27.90
2018-06-07T18:25:38.230Z,27.80
2018-06-07T18:30:40.875Z,27.70
2018-06-07T18:35:43.420Z,27.60
2018-06-07T18:40:45.956Z,27.50
2018-06-07T18:45:48.515Z,27.40
2018-06-07T18:50:51.051Z,27.30
2018-06-07T18:55:53.621Z,27.10
2018-06-07T19:00:56.204Z,27.10
2018-06-07T19:05:58.762Z,26.90
2018-06-07T19:11:01.336Z,26.80
2018-06-07T19:16:03.865Z,26.70
2018-06-07T19:21:06.428Z,26.60
2018-06-07T19:26:25.952Z,26.40
2018-06-07T19:31:28.504Z,26.30
2018-06-07T19:36:31.111Z,26.20
2018-06-07T19:41:40.408Z,26.10
2018-06-07T19:46:43.083Z,25.90
2018-06-07T19:51:45.625Z,25.80
2018-06-07T19:56:48.193Z,25.70
2018-06-07T20:01:50.755Z,25.50
2018-06-07T20:06:53.321Z,25.50
2018-06-07T20:11:55.968Z,25.30
2018-06-07T20:16:58.547Z,25.20
2018-06-07T20:22:01.420Z,25.20
2018-06-07T20:27:04.744Z,25.00
2018-06-07T20:32:07.311Z,24.90
2018-06-07T20:37:09.865Z,24.80
2018-06-07T20:42:12.413Z,24.70
2018-06-07T20:47:14.965Z,24.60
2018-06-07T20:52:17.508Z,24.50
2018-06-07T20:57:20.069Z,24.40
2018-06-07T21:02:22.614Z,24.40
2018-06-07T21:07:25.234Z,24.30
2018-06-07T21:12:27.871Z,24.20
2018-06-07T21:17:30.473Z,24.10
2018-06-07T21:22:33.024Z,24.00
2018-06-07T21:27:35.588Z,24.00
2018-06-07T21:32:38.547Z,23.80
2018-06-07T21:37:42.079Z,23.70
2018-06-07T21:42:45.387Z,23.60
2018-06-07T21:47:47.936Z,23.60
2018-06-07T21:52:50.534Z,23.60
2018-06-07T21:57:53.105Z,23.50
2018-06-07T22:02:55.641Z,23.40
2018-06-07T22:07:58.283Z,23.40
2018-06-07T22:13:00.838Z,23.30
2018-06-07T22:18:03.363Z,23.30
2018-06-07T22:23:05.936Z,23.20
2018-06-07T22:28:08.488Z,23.20
2018-06-07T22:33:11.031Z,23.10
2018-06-07T22:38:13.585Z,23.00
2018-06-07T22:43:16.906Z,22.90
2018-06-07T22:48:20.234Z,22.90
2018-06-07T22:53:22.767Z,22.90
2018-06-07T22:58:25.296Z,22.80
2018-06-07T23:03:27.839Z,22.80
2018-06-07T23:08:30.425Z,22.80
2018-06-07T23:13:33.092Z,22.80
2018-06-07T23:18:35.646Z,22.70
2018-06-07T23:23:38.231Z,22.70
2018-06-07T23:28:40.781Z,22.70
2018-06-07T23:33:43.320Z,22.60
2018-06-07T23:38:45.871Z,22.60
2018-06-07T23:43:48.421Z,22.60
2018-06-07T23:48:51.748Z,22.40
2018-06-07T23:53:55.056Z,22.40
2018-06-07T23:58:57.604Z,22.40
